sensor_id;sensor_type;location;lat;lon;timestamp;P1;durP1;ratioP1;P2;durP2;ratioP2
7783;SDS011;19359;51.402;6.778;2022-08-30T00:01:57;3.70;;;2.22;;
7783;SDS011;19359;51.402;6.778;2022-08-30T00:04:23;2.85;;;2.65;;
7783;SDS011;19359;51.402;6.778;2022-08-30T00:06:50;2.97;;;2.67;;
7783;SDS011;19359;51.402;6.778;2022-08-30T00:09:17;3.83;;;2.10;;
7783;SDS011;19359;51.402;6.778;2022-08-30T00:11:45;2.22;;;2.10;;
7783;SDS011;19359;51.402;6.778;2022-08-30T00:14:12;3.42;;;2.38;;
7783;SDS011;19359;51.402;6.778;2022-08-30T00:16:38;4.03;;;1.90;;
7783;SDS011;19359;51.402;6.778;2022-08-30T00:19:05;10.40;;;2.55;;
7783;SDS011;19359;51.402;6.778;2022-08-30T00:21:32;6.38;;;2.38;;
7783;SDS011;19359;51.402;6.778;2022-08-30T00:23:59;3.85;;;2.38;;
7783;SDS011;19359;51.402;6.778;2022-08-30T00:26:25;6.00;;;3.13;;
7783;SDS011;19359;51.402;6.778;2022-08-30T00:28:54;3.20;;;2.70;;
7783;SDS011;19359;51.402;6.778;2022-08-30T00:31:20;5.22;;;2.13;;
7783;SDS011;19359;51.402;6.778;2022-08-30T00:33:47;4.72;;;2.47;;
7783;SDS011;19359;51.402;6.778;2022-08-30T00:36:14;5.68;;;2.83;;
7783;SDS011;19359;51.402;6.778;2022-08-30T00:38:41;6.22;;;2.97;;
7783;SDS011;19359;51.402;6.778;2022-08-30T00:41:08;4.13;;;2.08;;
7783;SDS011;19359;51.402;6.778;2022-08-30T00:43:35;2.47;;;2.15;;
7783;SDS011;19359;51.402;6.778;2022-08-30T00:46:04;3.72;;;2.58;;
7783;SDS011;19359;51.402;6.778;2022-08-30T00:48:32;5.70;;;2.15;;
7783;SDS011;19359;51.402;6.778;2022-08-30T00:51:03;8.50;;;2.45;;
7783;SDS011;19359;51.402;6.778;2022-08-30T00:53:35;3.28;;;3.03;;
7783;SDS011;19359;51.402;6.778;2022-08-30T00:56:04;2.42;;;1.83;;
7783;SDS011;19359;51.402;6.778;2022-08-30T00:58:33;7.63;;;2.95;;
7783;SDS011;19359;51.402;6.778;2022-08-30T01:01:02;2.15;;;1.70;;
7783;SDS011;19359;51.402;6.778;2022-08-30T01:03:32;5.95;;;2.58;;
7783;SDS011;19359;51.402;6.778;2022-08-30T01:06:01;7.82;;;2.35;;
7783;SDS011;19359;51.402;6.778;2022-08-30T01:08:29;2.05;;;1.95;;
7783;SDS011;19359;51.402;6.778;2022-08-30T01:10:56;7.28;;;2.17;;
7783;SDS011;19359;51.402;6.778;2022-08-30T01:13:24;6.15;;;2.35;;
7783;SDS011;19359;51.402;6.778;2022-08-30T01:15:52;6.18;;;2.00;;
7783;SDS011;19359;51.402;6.778;2022-08-30T01:18:21;4.75;;;2.42;;
7783;SDS011;19359;51.402;6.778;2022-08-30T01:20:50;6.78;;;2.42;;
7783;SDS011;19359;51.402;6.778;2022-08-30T01:23:25;4.53;;;2.65;;
7783;SDS011;19359;51.402;6.778;2022-08-30T01:25:53;9.65;;;2.60;;
7783;SDS011;19359;51.402;6.778;2022-08-30T01:28:22;5.78;;;2.42;;
7783;SDS011;19359;51.402;6.778;2022-08-30T01:30:51;4.43;;;2.60;;
7783;SDS011;19359;51.402;6.778;2022-08-30T01:33:18;4.65;;;2.53;;
7783;SDS011;19359;51.402;6.778;2022-08-30T01:35:47;2.80;;;1.73;;
7783;SDS011;19359;51.402;6.778;2022-08-30T01:38:16;2.92;;;2.17;;
7783;SDS011;19359;51.402;6.778;2022-08-30T01:40:46;9.88;;;2.25;;
7783;SDS011;19359;51.402;6.778;2022-08-30T01:43:13;2.42;;;2.33;;
7783;SDS011;19359;51.402;6.778;2022-08-30T01:45:41;5.55;;;2.40;;
7783;SDS011;19359;51.402;6.778;2022-08-30T01:48:08;3.13;;;1.77;;
7783;SDS011;19359;51.402;6.778;2022-08-30T01:50:36;6.57;;;2.17;;
7783;SDS011;19359;51.402;6.778;2022-08-30T01:53:04;3.00;;;2.38;;
7783;SDS011;19359;51.402;6.778;2022-08-30T01:55:31;7.65;;;2.20;;
7783;SDS011;19359;51.402;6.778;2022-08-30T01:57:59;7.18;;;2.30;;
7783;SDS011;19359;51.402;6.778;2022-08-30T02:00:26;2.08;;;1.98;;
7783;SDS011;19359;51.402;6.778;2022-08-30T02:02:54;2.67;;;2.13;;
7783;SDS011;19359;51.402;6.778;2022-08-30T02:05:22;5.22;;;2.30;;
7783;SDS011;19359;51.402;6.778;2022-08-30T02:07:48;5.50;;;1.60;;
7783;SDS011;19359;51.402;6.778;2022-08-30T02:10:15;5.28;;;2.20;;
7783;SDS011;19359;51.402;6.778;2022-08-30T02:12:42;2.10;;;2.00;;
7783;SDS011;19359;51.402;6.778;2022-08-30T02:15:10;1.70;;;1.60;;
7783;SDS011;19359;51.402;6.778;2022-08-30T02:17:37;3.17;;;1.75;;
7783;SDS011;19359;51.402;6.778;2022-08-30T02:20:04;5.90;;;2.17;;
7783;SDS011;19359;51.402;6.778;2022-08-30T02:22:32;2.00;;;1.90;;
7783;SDS011;19359;51.402;6.778;2022-08-30T02:24:59;3.95;;;2.28;;
7783;SDS011;19359;51.402;6.778;2022-08-30T02:27:26;4.38;;;2.42;;
7783;SDS011;19359;51.402;6.778;2022-08-30T02:29:53;2.42;;;2.28;;
7783;SDS011;19359;51.402;6.778;2022-08-30T02:32:21;2.42;;;2.05;;
7783;SDS011;19359;51.402;6.778;2022-08-30T02:34:48;4.88;;;2.00;;
7783;SDS011;19359;51.402;6.778;2022-08-30T02:37:15;1.63;;;1.52;;
7783;SDS011;19359;51.402;6.778;2022-08-30T02:39:42;2.83;;;1.88;;
7783;SDS011;19359;51.402;6.778;2022-08-30T02:42:09;3.20;;;2.30;;
7783;SDS011;19359;51.402;6.778;2022-08-30T02:44:35;2.20;;;1.88;;
7783;SDS011;19359;51.402;6.778;2022-08-30T02:47:02;2.25;;;2.15;;
7783;SDS011;19359;51.402;6.778;2022-08-30T02:49:30;4.85;;;2.05;;
7783;SDS011;19359;51.402;6.778;2022-08-30T02:51:57;2.20;;;1.45;;
7783;SDS011;19359;51.402;6.778;2022-08-30T02:54:24;3.63;;;2.05;;
7783;SDS011;19359;51.402;6.778;2022-08-30T02:56:52;3.40;;;1.88;;
7783;SDS011;19359;51.402;6.778;2022-08-30T02:59:20;4.03;;;1.70;;
7783;SDS011;19359;51.402;6.778;2022-08-30T03:01:46;1.95;;;1.70;;
7783;SDS011;19359;51.402;6.778;2022-08-30T03:04:13;3.40;;;2.00;;
7783;SDS011;19359;51.402;6.778;2022-08-30T03:06:42;4.00;;;2.08;;
7783;SDS011;19359;51.402;6.778;2022-08-30T03:09:08;3.22;;;1.65;;
7783;SDS011;19359;51.402;6.778;2022-08-30T03:11:35;2.03;;;2.03;;
7783;SDS011;19359;51.402;6.778;2022-08-30T03:14:02;1.90;;;1.80;;
7783;SDS011;19359;51.402;6.778;2022-08-30T03:16:29;2.78;;;2.00;;
7783;SDS011;19359;51.402;6.778;2022-08-30T03:18:56;5.03;;;2.38;;
7783;SDS011;19359;51.402;6.778;2022-08-30T03:21:22;5.13;;;2.05;;
7783;SDS011;19359;51.402;6.778;2022-08-30T03:23:51;3.40;;;2.05;;
7783;SDS011;19359;51.402;6.778;2022-08-30T03:26:17;2.08;;;2.00;;
7783;SDS011;19359;51.402;6.778;2022-08-30T03:28:44;3.75;;;2.10;;
7783;SDS011;19359;51.402;6.778;2022-08-30T03:31:11;4.90;;;2.13;;
7783;SDS011;19359;51.402;6.778;2022-08-30T03:33:38;2.20;;;2.10;;
7783;SDS011;19359;51.402;6.778;2022-08-30T03:36:06;4.60;;;2.70;;
7783;SDS011;19359;51.402;6.778;2022-08-30T03:38:33;1.60;;;1.50;;
7783;SDS011;19359;51.402;6.778;2022-08-30T03:41:01;3.75;;;2.40;;
7783;SDS011;19359;51.402;6.778;2022-08-30T03:43:29;3.67;;;2.50;;
7783;SDS011;19359;51.402;6.778;2022-08-30T03:45:57;4.07;;;2.13;;
7783;SDS011;19359;51.402;6.778;2022-08-30T03:48:24;4.68;;;2.22;;
7783;SDS011;19359;51.402;6.778;2022-08-30T03:50:51;2.10;;;2.00;;
7783;SDS011;19359;51.402;6.778;2022-08-30T03:53:19;2.38;;;2.28;;
7783;SDS011;19359;51.402;6.778;2022-08-30T03:55:46;2.28;;;2.08;;
7783;SDS011;19359;51.402;6.778;2022-08-30T03:58:14;2.55;;;2.22;;
7783;SDS011;19359;51.402;6.778;2022-08-30T04:00:41;1.75;;;1.65;;
7783;SDS011;19359;51.402;6.778;2022-08-30T04:03:08;1.90;;;1.80;;
7783;SDS011;19359;51.402;6.778;2022-08-30T04:05:34;2.50;;;2.40;;
7783;SDS011;19359;51.402;6.778;2022-08-30T04:08:02;2.88;;;2.67;;
7783;SDS011;19359;51.402;6.778;2022-08-30T04:10:29;2.50;;;2.30;;
7783;SDS011;19359;51.402;6.778;2022-08-30T04:12:56;3.05;;;2.47;;
7783;SDS011;19359;51.402;6.778;2022-08-30T04:15:24;4.45;;;2.10;;
7783;SDS011;19359;51.402;6.778;2022-08-30T04:17:51;3.40;;;2.30;;
7783;SDS011;19359;51.402;6.778;2022-08-30T04:20:19;2.67;;;2.50;;
7783;SDS011;19359;51.402;6.778;2022-08-30T04:22:46;2.63;;;2.53;;
7783;SDS011;19359;51.402;6.778;2022-08-30T04:25:14;2.95;;;2.58;;
7783;SDS011;19359;51.402;6.778;2022-08-30T04:27:41;3.70;;;3.03;;
7783;SDS011;19359;51.402;6.778;2022-08-30T04:30:09;2.20;;;2.20;;
7783;SDS011;19359;51.402;6.778;2022-08-30T04:32:38;3.22;;;2.28;;
7783;SDS011;19359;51.402;6.778;2022-08-30T04:35:05;3.13;;;2.22;;
7783;SDS011;19359;51.402;6.778;2022-08-30T04:37:33;5.63;;;2.05;;
7783;SDS011;19359;51.402;6.778;2022-08-30T04:40:00;2.75;;;2.50;;
7783;SDS011;19359;51.402;6.778;2022-08-30T04:42:27;2.55;;;2.35;;
7783;SDS011;19359;51.402;6.778;2022-08-30T04:44:56;3.40;;;2.92;;
7783;SDS011;19359;51.402;6.778;2022-08-30T04:47:24;3.55;;;2.53;;
7783;SDS011;19359;51.402;6.778;2022-08-30T04:49:52;2.67;;;2.17;;
7783;SDS011;19359;51.402;6.778;2022-08-30T04:52:19;3.20;;;2.97;;
7783;SDS011;19359;51.402;6.778;2022-08-30T04:54:47;4.25;;;2.97;;
7783;SDS011;19359;51.402;6.778;2022-08-30T04:57:13;2.65;;;2.20;;
7783;SDS011;19359;51.402;6.778;2022-08-30T04:59:40;3.65;;;2.63;;
7783;SDS011;19359;51.402;6.778;2022-08-30T05:02:07;3.15;;;2.83;;
7783;SDS011;19359;51.402;6.778;2022-08-30T05:04:34;2.88;;;2.60;;
7783;SDS011;19359;51.402;6.778;2022-08-30T05:07:03;2.70;;;2.60;;
7783;SDS011;19359;51.402;6.778;2022-08-30T05:09:29;2.72;;;2.63;;
7783;SDS011;19359;51.402;6.778;2022-08-30T05:11:56;4.25;;;2.60;;
7783;SDS011;19359;51.402;6.778;2022-08-30T05:14:23;3.75;;;2.97;;
7783;SDS011;19359;51.402;6.778;2022-08-30T05:16:50;2.55;;;2.35;;
7783;SDS011;19359;51.402;6.778;2022-08-30T05:19:17;4.15;;;2.53;;
7783;SDS011;19359;51.402;6.778;2022-08-30T05:21:43;3.75;;;3.50;;
7783;SDS011;19359;51.402;6.778;2022-08-30T05:24:12;5.47;;;3.17;;
7783;SDS011;19359;51.402;6.778;2022-08-30T05:26:38;5.38;;;2.85;;
7783;SDS011;19359;51.402;6.778;2022-08-30T05:29:05;4.30;;;3.35;;
7783;SDS011;19359;51.402;6.778;2022-08-30T05:31:33;6.03;;;3.60;;
7783;SDS011;19359;51.402;6.778;2022-08-30T05:34:01;7.13;;;3.63;;
7783;SDS011;19359;51.402;6.778;2022-08-30T05:36:29;5.57;;;3.75;;
7783;SDS011;19359;51.402;6.778;2022-08-30T05:38:58;4.75;;;4.30;;
7783;SDS011;19359;51.402;6.778;2022-08-30T05:41:26;11.43;;;3.90;;
7783;SDS011;19359;51.402;6.778;2022-08-30T05:43:53;3.88;;;3.65;;
7783;SDS011;19359;51.402;6.778;2022-08-30T05:46:22;5.63;;;3.70;;
7783;SDS011;19359;51.402;6.778;2022-08-30T05:48:49;6.78;;;3.13;;
7783;SDS011;19359;51.402;6.778;2022-08-30T05:51:17;7.55;;;4.18;;
7783;SDS011;19359;51.402;6.778;2022-08-30T05:53:46;5.53;;;3.50;;
7783;SDS011;19359;51.402;6.778;2022-08-30T05:56:15;11.60;;;3.33;;
7783;SDS011;19359;51.402;6.778;2022-08-30T05:58:46;10.60;;;3.88;;
7783;SDS011;19359;51.402;6.778;2022-08-30T06:01:23;4.30;;;2.72;;
7783;SDS011;19359;51.402;6.778;2022-08-30T06:03:52;7.78;;;3.47;;
7783;SDS011;19359;51.402;6.778;2022-08-30T06:06:19;8.13;;;3.78;;
7783;SDS011;19359;51.402;6.778;2022-08-30T06:08:47;5.70;;;3.50;;
7783;SDS011;19359;51.402;6.778;2022-08-30T06:11:15;6.15;;;3.63;;
7783;SDS011;19359;51.402;6.778;2022-08-30T06:13:43;13.38;;;4.22;;
7783;SDS011;19359;51.402;6.778;2022-08-30T06:16:13;4.57;;;3.83;;
7783;SDS011;19359;51.402;6.778;2022-08-30T06:18:42;3.03;;;2.92;;
7783;SDS011;19359;51.402;6.778;2022-08-30T06:21:14;3.92;;;3.67;;
7783;SDS011;19359;51.402;6.778;2022-08-30T06:23:41;4.28;;;3.60;;
7783;SDS011;19359;51.402;6.778;2022-08-30T06:26:09;4.65;;;3.65;;
7783;SDS011;19359;51.402;6.778;2022-08-30T06:28:36;5.28;;;4.28;;
7783;SDS011;19359;51.402;6.778;2022-08-30T06:31:05;4.85;;;3.50;;
7783;SDS011;19359;51.402;6.778;2022-08-30T06:33:32;6.57;;;3.95;;
7783;SDS011;19359;51.402;6.778;2022-08-30T06:36:01;6.80;;;3.58;;
7783;SDS011;19359;51.402;6.778;2022-08-30T06:38:28;6.47;;;4.30;;
7783;SDS011;19359;51.402;6.778;2022-08-30T06:40:55;3.95;;;3.75;;
7783;SDS011;19359;51.402;6.778;2022-08-30T06:43:22;7.43;;;3.95;;
7783;SDS011;19359;51.402;6.778;2022-08-30T06:45:49;4.75;;;3.38;;
7783;SDS011;19359;51.402;6.778;2022-08-30T06:48:17;9.93;;;3.60;;
7783;SDS011;19359;51.402;6.778;2022-08-30T06:50:44;4.47;;;3.67;;
7783;SDS011;19359;51.402;6.778;2022-08-30T06:53:10;4.00;;;3.75;;
7783;SDS011;19359;51.402;6.778;2022-08-30T06:55:37;5.28;;;3.53;;
7783;SDS011;19359;51.402;6.778;2022-08-30T06:58:04;8.32;;;3.47;;
7783;SDS011;19359;51.402;6.778;2022-08-30T07:00:30;6.35;;;3.70;;
7783;SDS011;19359;51.402;6.778;2022-08-30T07:02:57;5.05;;;3.63;;
7783;SDS011;19359;51.402;6.778;2022-08-30T07:05:27;4.68;;;4.28;;
7783;SDS011;19359;51.402;6.778;2022-08-30T07:07:53;4.25;;;3.90;;
7783;SDS011;19359;51.402;6.778;2022-08-30T07:10:20;6.82;;;3.65;;
7783;SDS011;19359;51.402;6.778;2022-08-30T07:12:47;4.43;;;3.92;;
7783;SDS011;19359;51.402;6.778;2022-08-30T07:15:14;3.50;;;3.30;;
7783;SDS011;19359;51.402;6.778;2022-08-30T07:17:44;3.53;;;3.20;;
7783;SDS011;19359;51.402;6.778;2022-08-30T07:20:29;6.32;;;3.95;;
7783;SDS011;19359;51.402;6.778;2022-08-30T07:22:56;7.28;;;4.60;;
7783;SDS011;19359;51.402;6.778;2022-08-30T07:25:23;6.78;;;4.10;;
7783;SDS011;19359;51.402;6.778;2022-08-30T07:27:50;3.58;;;3.38;;
7783;SDS011;19359;51.402;6.778;2022-08-30T07:30:17;3.83;;;3.58;;
7783;SDS011;19359;51.402;6.778;2022-08-30T07:32:44;4.47;;;4.20;;
7783;SDS011;19359;51.402;6.778;2022-08-30T07:35:10;9.02;;;4.32;;
7783;SDS011;19359;51.402;6.778;2022-08-30T07:37:38;7.78;;;3.92;;
7783;SDS011;19359;51.402;6.778;2022-08-30T07:40:06;3.78;;;3.47;;
7783;SDS011;19359;51.402;6.778;2022-08-30T07:42:34;4.80;;;4.47;;
7783;SDS011;19359;51.402;6.778;2022-08-30T07:45:00;5.13;;;4.57;;
7783;SDS011;19359;51.402;6.778;2022-08-30T07:47:28;9.10;;;4.50;;
7783;SDS011;19359;51.402;6.778;2022-08-30T07:49:55;7.20;;;4.18;;
7783;SDS011;19359;51.402;6.778;2022-08-30T07:52:24;6.03;;;3.90;;
7783;SDS011;19359;51.402;6.778;2022-08-30T07:54:52;3.95;;;3.50;;
7783;SDS011;19359;51.402;6.778;2022-08-30T07:57:20;5.03;;;4.00;;
7783;SDS011;19359;51.402;6.778;2022-08-30T07:59:47;9.02;;;4.28;;
7783;SDS011;19359;51.402;6.778;2022-08-30T08:02:14;8.40;;;3.45;;
7783;SDS011;19359;51.402;6.778;2022-08-30T08:04:40;4.22;;;3.83;;
7783;SDS011;19359;51.402;6.778;2022-08-30T08:07:08;6.40;;;4.25;;
7783;SDS011;19359;51.402;6.778;2022-08-30T08:09:35;3.95;;;3.65;;
7783;SDS011;19359;51.402;6.778;2022-08-30T08:12:04;8.63;;;3.30;;
7783;SDS011;19359;51.402;6.778;2022-08-30T08:14:32;3.58;;;3.38;;
7783;SDS011;19359;51.402;6.778;2022-08-30T08:17:00;4.15;;;3.58;;
7783;SDS011;19359;51.402;6.778;2022-08-30T08:19:27;3.40;;;2.90;;
7783;SDS011;19359;51.402;6.778;2022-08-30T08:21:54;3.30;;;2.97;;
7783;SDS011;19359;51.402;6.778;2022-08-30T08:24:24;3.92;;;2.75;;
7783;SDS011;19359;51.402;6.778;2022-08-30T08:26:51;8.45;;;2.97;;
7783;SDS011;19359;51.402;6.778;2022-08-30T08:29:20;5.55;;;3.20;;
7783;SDS011;19359;51.402;6.778;2022-08-30T08:31:47;4.25;;;2.97;;
7783;SDS011;19359;51.402;6.778;2022-08-30T08:34:14;3.45;;;3.22;;
7783;SDS011;19359;51.402;6.778;2022-08-30T08:36:43;3.30;;;3.10;;
7783;SDS011;19359;51.402;6.778;2022-08-30T08:39:12;6.93;;;3.45;;
7783;SDS011;19359;51.402;6.778;2022-08-30T08:41:40;3.10;;;2.95;;
7783;SDS011;19359;51.402;6.778;2022-08-30T08:44:21;4.80;;;2.85;;
7783;SDS011;19359;51.402;6.778;2022-08-30T08:47:03;5.70;;;3.17;;
7783;SDS011;19359;51.402;6.778;2022-08-30T08:49:36;4.65;;;2.83;;
7783;SDS011;19359;51.402;6.778;2022-08-30T08:52:04;5.18;;;3.08;;
7783;SDS011;19359;51.402;6.778;2022-08-30T08:54:50;6.03;;;2.78;;
7783;SDS011;19359;51.402;6.778;2022-08-30T08:57:21;9.23;;;2.45;;
7783;SDS011;19359;51.402;6.778;2022-08-30T08:59:49;2.97;;;2.80;;
7783;SDS011;19359;51.402;6.778;2022-08-30T09:02:21;4.10;;;2.35;;
7783;SDS011;19359;51.402;6.778;2022-08-30T09:04:49;6.55;;;2.80;;
7783;SDS011;19359;51.402;6.778;2022-08-30T09:07:20;2.45;;;2.25;;
7783;SDS011;19359;51.402;6.778;2022-08-30T09:09:48;5.55;;;2.88;;
7783;SDS011;19359;51.402;6.778;2022-08-30T09:12:15;6.13;;;2.95;;
7783;SDS011;19359;51.402;6.778;2022-08-30T09:14:43;2.53;;;2.40;;
7783;SDS011;19359;51.402;6.778;2022-08-30T09:17:14;2.85;;;2.65;;
7783;SDS011;19359;51.402;6.778;2022-08-30T09:19:42;5.78;;;2.80;;
7783;SDS011;19359;51.402;6.778;2022-08-30T09:22:13;2.78;;;2.67;;
7783;SDS011;19359;51.402;6.778;2022-08-30T09:24:44;7.38;;;2.20;;
7783;SDS011;19359;51.402;6.778;2022-08-30T09:27:18;6.22;;;2.28;;
7783;SDS011;19359;51.402;6.778;2022-08-30T09:29:52;8.55;;;2.63;;
7783;SDS011;19359;51.402;6.778;2022-08-30T09:32:23;2.40;;;2.15;;
7783;SDS011;19359;51.402;6.778;2022-08-30T09:34:52;5.38;;;2.63;;
7783;SDS011;19359;51.402;6.778;2022-08-30T09:40:11;5.80;;;1.95;;
7783;SDS011;19359;51.402;6.778;2022-08-30T09:42:41;1.70;;;1.60;;
7783;SDS011;19359;51.402;6.778;2022-08-30T09:45:27;5.53;;;2.33;;
7783;SDS011;19359;51.402;6.778;2022-08-30T09:47:58;3.65;;;1.40;;
7783;SDS011;19359;51.402;6.778;2022-08-30T09:50:25;4.10;;;1.73;;
7783;SDS011;19359;51.402;6.778;2022-08-30T09:53:00;2.28;;;1.75;;
7783;SDS011;19359;51.402;6.778;2022-08-30T09:55:46;2.72;;;1.85;;
7783;SDS011;19359;51.402;6.778;2022-08-30T09:58:23;3.70;;;1.90;;
7783;SDS011;19359;51.402;6.778;2022-08-30T10:01:03;5.97;;;2.05;;
7783;SDS011;19359;51.402;6.778;2022-08-30T10:03:40;4.95;;;1.95;;
7783;SDS011;19359;51.402;6.778;2022-08-30T10:06:16;1.50;;;1.42;;
7783;SDS011;19359;51.402;6.778;2022-08-30T10:08:52;1.35;;;1.25;;
7783;SDS011;19359;51.402;6.778;2022-08-30T10:11:27;6.22;;;1.77;;
7783;SDS011;19359;51.402;6.778;2022-08-30T10:17:12;2.03;;;1.83;;
7783;SDS011;19359;51.402;6.778;2022-08-30T10:19:53;4.70;;;1.73;;
7783;SDS011;19359;51.402;6.778;2022-08-30T10:22:27;2.05;;;1.25;;
7783;SDS011;19359;51.402;6.778;2022-08-30T10:25:00;6.45;;;1.40;;
7783;SDS011;19359;51.402;6.778;2022-08-30T10:27:30;6.50;;;1.50;;
7783;SDS011;19359;51.402;6.778;2022-08-30T10:30:05;11.60;;;1.45;;
7783;SDS011;19359;51.402;6.778;2022-08-30T10:32:35;4.03;;;1.23;;
7783;SDS011;19359;51.402;6.778;2022-08-30T10:35:11;3.35;;;1.30;;
7783;SDS011;19359;51.402;6.778;2022-08-30T10:37:41;1.77;;;1.67;;
7783;SDS011;19359;51.402;6.778;2022-08-30T10:40:12;2.60;;;1.27;;
7783;SDS011;19359;51.402;6.778;2022-08-30T10:43:00;6.95;;;1.92;;
7783;SDS011;19359;51.402;6.778;2022-08-30T10:45:30;3.42;;;1.67;;
7783;SDS011;19359;51.402;6.778;2022-08-30T10:48:03;1.00;;;0.93;;
7783;SDS011;19359;51.402;6.778;2022-08-30T10:50:37;1.30;;;1.20;;
7783;SDS011;19359;51.402;6.778;2022-08-30T10:53:09;8.00;;;1.30;;
7783;SDS011;19359;51.402;6.778;2022-08-30T10:55:40;3.08;;;1.45;;
7783;SDS011;19359;51.402;6.778;2022-08-30T10:58:14;3.70;;;1.35;;
7783;SDS011;19359;51.402;6.778;2022-08-30T11:00:44;2.40;;;1.33;;
7783;SDS011;19359;51.402;6.778;2022-08-30T11:03:28;1.83;;;1.63;;
7783;SDS011;19359;51.402;6.778;2022-08-30T11:06:22;1.25;;;1.25;;
7783;SDS011;19359;51.402;6.778;2022-08-30T11:09:01;5.53;;;2.03;;
7783;SDS011;19359;51.402;6.778;2022-08-30T11:12:01;4.88;;;0.90;;
7783;SDS011;19359;51.402;6.778;2022-08-30T11:14:47;2.45;;;1.30;;
7783;SDS011;19359;51.402;6.778;2022-08-30T11:17:25;2.63;;;1.10;;
7783;SDS011;19359;51.402;6.778;2022-08-30T11:19:54;2.85;;;1.20;;
7783;SDS011;19359;51.402;6.778;2022-08-30T11:22:26;6.32;;;1.73;;
7783;SDS011;19359;51.402;6.778;2022-08-30T11:24:58;1.98;;;1.10;;
7783;SDS011;19359;51.402;6.778;2022-08-30T11:27:39;5.75;;;1.17;;
7783;SDS011;19359;51.402;6.778;2022-08-30T11:42:30;0.77;;;0.70;;
7783;SDS011;19359;51.402;6.778;2022-08-30T11:48:03;2.20;;;1.15;;
7783;SDS011;19359;51.402;6.778;2022-08-30T11:50:34;1.50;;;0.90;;
7783;SDS011;19359;51.402;6.778;2022-08-30T11:53:15;3.97;;;0.90;;
7783;SDS011;19359;51.402;6.778;2022-08-30T11:55:54;3.42;;;1.00;;
7783;SDS011;19359;51.402;6.778;2022-08-30T11:58:28;1.08;;;0.98;;
7783;SDS011;19359;51.402;6.778;2022-08-30T12:01:15;1.25;;;1.00;;
7783;SDS011;19359;51.402;6.778;2022-08-30T12:03:52;2.70;;;0.90;;
7783;SDS011;19359;51.402;6.778;2022-08-30T12:09:58;1.67;;;1.00;;
7783;SDS011;19359;51.402;6.778;2022-08-30T12:12:47;2.65;;;1.02;;
7783;SDS011;19359;51.402;6.778;2022-08-30T12:18:24;0.75;;;0.75;;
7783;SDS011;19359;51.402;6.778;2022-08-30T12:21:07;1.50;;;1.40;;
7783;SDS011;19359;51.402;6.778;2022-08-30T12:23:45;1.85;;;0.93;;
7783;SDS011;19359;51.402;6.778;2022-08-30T12:26:17;1.67;;;1.10;;
7783;SDS011;19359;51.402;6.778;2022-08-30T12:29:06;5.25;;;1.42;;
7783;SDS011;19359;51.402;6.778;2022-08-30T12:31:38;4.30;;;1.17;;
7783;SDS011;19359;51.402;6.778;2022-08-30T12:34:06;2.17;;;1.20;;
7783;SDS011;19359;51.402;6.778;2022-08-30T12:36:33;1.70;;;1.17;;
7783;SDS011;19359;51.402;6.778;2022-08-30T12:39:08;1.40;;;1.20;;
7783;SDS011;19359;51.402;6.778;2022-08-30T12:41:37;2.13;;;1.27;;
7783;SDS011;19359;51.402;6.778;2022-08-30T12:44:07;1.23;;;1.10;;
7783;SDS011;19359;51.402;6.778;2022-08-30T12:46:38;11.05;;;1.83;;
7783;SDS011;19359;51.402;6.778;2022-08-30T12:49:06;2.90;;;1.27;;
7783;SDS011;19359;51.402;6.778;2022-08-30T12:51:35;0.75;;;0.75;;
7783;SDS011;19359;51.402;6.778;2022-08-30T12:54:05;2.50;;;0.80;;
7783;SDS011;19359;51.402;6.778;2022-08-30T12:56:48;1.75;;;1.20;;
7783;SDS011;19359;51.402;6.778;2022-08-30T12:59:37;1.17;;;1.08;;
7783;SDS011;19359;51.402;6.778;2022-08-30T13:02:16;2.38;;;1.25;;
7783;SDS011;19359;51.402;6.778;2022-08-30T13:04:45;2.05;;;1.35;;
7783;SDS011;19359;51.402;6.778;2022-08-30T13:07:30;2.28;;;1.38;;
7783;SDS011;19359;51.402;6.778;2022-08-30T13:10:05;8.30;;;1.15;;
7783;SDS011;19359;51.402;6.778;2022-08-30T13:12:38;2.28;;;1.00;;
7783;SDS011;19359;51.402;6.778;2022-08-30T13:15:15;1.35;;;1.35;;
7783;SDS011;19359;51.402;6.778;2022-08-30T13:17:43;1.70;;;1.70;;
7783;SDS011;19359;51.402;6.778;2022-08-30T13:20:22;2.20;;;1.08;;
7783;SDS011;19359;51.402;6.778;2022-08-30T13:23:00;2.28;;;1.42;;
7783;SDS011;19359;51.402;6.778;2022-08-30T13:25:30;1.92;;;1.33;;
7783;SDS011;19359;51.402;6.778;2022-08-30T13:27:58;1.20;;;0.60;;
7783;SDS011;19359;51.402;6.778;2022-08-30T13:30:27;3.30;;;1.23;;
7783;SDS011;19359;51.402;6.778;2022-08-30T13:32:54;1.27;;;1.20;;
7783;SDS011;19359;51.402;6.778;2022-08-30T13:35:21;2.03;;;1.05;;
7783;SDS011;19359;51.402;6.778;2022-08-30T13:37:48;2.95;;;1.08;;
7783;SDS011;19359;51.402;6.778;2022-08-30T13:40:15;1.52;;;1.20;;
7783;SDS011;19359;51.402;6.778;2022-08-30T13:42:42;5.28;;;1.40;;
7783;SDS011;19359;51.402;6.778;2022-08-30T13:45:09;1.88;;;1.10;;
7783;SDS011;19359;51.402;6.778;2022-08-30T13:47:40;3.25;;;1.60;;
7783;SDS011;19359;51.402;6.778;2022-08-30T13:50:10;1.38;;;1.23;;
7783;SDS011;19359;51.402;6.778;2022-08-30T13:52:38;1.95;;;0.88;;
7783;SDS011;19359;51.402;6.778;2022-08-30T13:55:05;1.40;;;1.00;;
7783;SDS011;19359;51.402;6.778;2022-08-30T13:57:32;3.88;;;1.00;;
7783;SDS011;19359;51.402;6.778;2022-08-30T13:59:59;3.22;;;1.35;;
7783;SDS011;19359;51.402;6.778;2022-08-30T14:02:26;2.67;;;0.90;;
7783;SDS011;19359;51.402;6.778;2022-08-30T14:04:54;2.38;;;1.08;;
7783;SDS011;19359;51.402;6.778;2022-08-30T14:07:21;4.28;;;1.60;;
7783;SDS011;19359;51.402;6.778;2022-08-30T14:09:47;4.28;;;1.00;;
7783;SDS011;19359;51.402;6.778;2022-08-30T14:12:14;1.27;;;0.82;;
7783;SDS011;19359;51.402;6.778;2022-08-30T14:14:41;3.45;;;1.05;;
7783;SDS011;19359;51.402;6.778;2022-08-30T14:17:08;3.30;;;0.90;;
7783;SDS011;19359;51.402;6.778;2022-08-30T14:19:34;1.42;;;1.15;;
7783;SDS011;19359;51.402;6.778;2022-08-30T14:22:02;1.33;;;1.00;;
7783;SDS011;19359;51.402;6.778;2022-08-30T14:24:29;5.22;;;1.10;;
7783;SDS011;19359;51.402;6.778;2022-08-30T14:26:56;1.80;;;1.10;;
7783;SDS011;19359;51.402;6.778;2022-08-30T14:29:24;0.80;;;0.80;;
7783;SDS011;19359;51.402;6.778;2022-08-30T14:31:53;2.60;;;0.80;;
7783;SDS011;19359;51.402;6.778;2022-08-30T14:34:20;12.48;;;2.75;;
7783;SDS011;19359;51.402;6.778;2022-08-30T14:36:48;4.53;;;1.88;;
7783;SDS011;19359;51.402;6.778;2022-08-30T14:39:16;11.13;;;1.02;;
7783;SDS011;19359;51.402;6.778;2022-08-30T14:41:45;5.78;;;1.42;;
7783;SDS011;19359;51.402;6.778;2022-08-30T14:44:14;2.65;;;0.93;;
7783;SDS011;19359;51.402;6.778;2022-08-30T14:46:42;1.80;;;0.98;;
7783;SDS011;19359;51.402;6.778;2022-08-30T14:49:09;2.05;;;0.90;;
7783;SDS011;19359;51.402;6.778;2022-08-30T14:51:36;3.10;;;0.93;;
7783;SDS011;19359;51.402;6.778;2022-08-30T14:54:03;2.05;;;0.82;;
7783;SDS011;19359;51.402;6.778;2022-08-30T14:56:31;2.83;;;1.27;;
7783;SDS011;19359;51.402;6.778;2022-08-30T14:58:58;2.15;;;1.05;;
7783;SDS011;19359;51.402;6.778;2022-08-30T15:01:27;6.35;;;1.15;;
7783;SDS011;19359;51.402;6.778;2022-08-30T15:03:55;1.05;;;0.93;;
7783;SDS011;19359;51.402;6.778;2022-08-30T15:06:22;3.33;;;1.17;;
7783;SDS011;19359;51.402;6.778;2022-08-30T15:08:49;4.07;;;1.00;;
7783;SDS011;19359;51.402;6.778;2022-08-30T15:11:18;5.50;;;1.15;;
7783;SDS011;19359;51.402;6.778;2022-08-30T15:13:47;2.13;;;1.40;;
7783;SDS011;19359;51.402;6.778;2022-08-30T15:16:16;7.82;;;1.50;;
7783;SDS011;19359;51.402;6.778;2022-08-30T15:18:44;1.30;;;1.20;;
7783;SDS011;19359;51.402;6.778;2022-08-30T15:21:11;4.20;;;0.90;;
7783;SDS011;19359;51.402;6.778;2022-08-30T15:23:38;2.55;;;1.00;;
7783;SDS011;19359;51.402;6.778;2022-08-30T15:26:06;3.45;;;1.05;;
7783;SDS011;19359;51.402;6.778;2022-08-30T15:28:33;1.33;;;0.93;;
7783;SDS011;19359;51.402;6.778;2022-08-30T15:31:01;0.88;;;0.88;;
7783;SDS011;19359;51.402;6.778;2022-08-30T15:33:28;0.90;;;0.90;;
7783;SDS011;19359;51.402;6.778;2022-08-30T15:35:58;1.02;;;1.02;;
7783;SDS011;19359;51.402;6.778;2022-08-30T15:38:25;2.05;;;0.90;;
7783;SDS011;19359;51.402;6.778;2022-08-30T15:40:52;3.25;;;1.10;;
7783;SDS011;19359;51.402;6.778;2022-08-30T15:43:18;2.70;;;1.08;;